createdAt,value
2018-01-11T00:01:34.227Z,3.90
2018-01-11T00:04:03.371Z,4.00
2018-01-11T00:06:43.488Z,4.00
2018-01-11T00:09:13.616Z,4.00
2018-01-11T00:11:56.816Z,4.10
2018-01-11T00:14:26.618Z,4.10
2018-01-11T00:16:55.716Z,4.10
2018-01-11T00:19:24.426Z,4.10
2018-01-11T00:21:53.114Z,4.10
2018-01-11T00:24:26.258Z,4.00
2018-01-11T00:27:02.978Z,4.00
2018-01-11T00:29:48.349Z,4.00
2018-01-11T00:32:29.640Z,4.00
2018-01-11T00:34:58.317Z,3.90
2018-01-11T00:37:26.997Z,3.90
2018-01-11T00:39:55.680Z,3.90
2018-01-11T00:42:24.350Z,4.00
2018-01-11T00:44:53.051Z,4.00
2018-01-11T00:47:21.720Z,3.90
2018-01-11T00:49:50.389Z,4.00
2018-01-11T00:52:19.849Z,4.00
2018-01-11T00:54:48.537Z,4.00
2018-01-11T00:57:17.251Z,4.00
2018-01-11T00:59:46.693Z,4.00
2018-01-11T01:02:15.366Z,3.90
2018-01-11T01:04:44.044Z,3.90
2018-01-11T01:07:13.482Z,3.90
2018-01-11T01:09:42.177Z,3.90
2018-01-11T01:12:10.853Z,3.90
2018-01-11T01:14:39.516Z,3.90
2018-01-11T01:17:08.206Z,4.00
2018-01-11T01:19:36.871Z,4.00
2018-01-11T01:22:06.329Z,3.90
2018-01-11T01:24:35.001Z,3.80
2018-01-11T01:27:03.677Z,3.90
2018-01-11T01:29:32.376Z,3.90
2018-01-11T01:32:01.053Z,3.90
2018-01-11T01:34:29.754Z,3.90
2018-01-11T01:36:58.424Z,3.90
2018-01-11T01:39:27.099Z,4.00
2018-01-11T01:41:55.794Z,3.90
2018-01-11T01:44:24.474Z,3.90
2018-01-11T01:46:53.171Z,3.90
2018-01-11T01:49:21.851Z,4.00
2018-01-11T01:51:50.528Z,4.00
2018-01-11T01:54:19.232Z,4.00
2018-01-11T01:56:47.901Z,4.00
2018-01-11T01:59:17.029Z,4.00
2018-01-11T02:01:45.709Z,4.00
2018-01-11T02:04:14.385Z,4.00
2018-01-11T02:06:43.069Z,4.00
2018-01-11T02:09:11.745Z,4.00
2018-01-11T02:11:41.214Z,4.00
2018-01-11T02:14:09.893Z,3.90
2018-01-11T02:16:38.569Z,4.00
2018-01-11T02:19:06.917Z,3.90
2018-01-11T02:21:35.580Z,3.90
2018-01-11T02:24:05.037Z,3.90
2018-01-11T02:26:33.710Z,3.90
2018-01-11T02:29:02.382Z,4.00
2018-01-11T02:31:31.068Z,4.00
2018-01-11T02:33:59.751Z,3.90
2018-01-11T02:36:28.471Z,3.90
2018-01-11T02:38:57.141Z,3.90
2018-01-11T02:41:25.490Z,3.90
2018-01-11T02:43:54.954Z,3.90
2018-01-11T02:46:24.397Z,3.90
2018-01-11T02:48:53.855Z,3.90
2018-01-11T02:51:22.531Z,3.90
2018-01-11T02:53:51.226Z,3.90
2018-01-11T02:56:19.899Z,3.90
2018-01-11T02:58:48.569Z,3.80
2018-01-11T03:01:17.245Z,3.70
2018-01-11T03:03:46.680Z,3.50
2018-01-11T03:06:15.384Z,3.50
2018-01-11T03:08:44.715Z,3.50
2018-01-11T03:11:13.385Z,3.50
2018-01-11T03:13:42.070Z,3.50
2018-01-11T03:16:10.749Z,3.50
2018-01-11T03:18:39.458Z,3.50
2018-01-11T03:21:08.186Z,3.50
2018-01-11T03:23:36.864Z,3.50
2018-01-11T03:26:07.474Z,3.60
2018-01-11T03:28:36.149Z,3.50
2018-01-11T03:31:04.847Z,3.50
2018-01-11T03:33:33.530Z,3.60
2018-01-11T03:36:02.526Z,3.60
2018-01-11T03:38:31.219Z,3.70
2018-01-11T03:41:00.652Z,3.60
2018-01-11T03:43:30.873Z,3.60
2018-01-11T03:45:59.538Z,3.60
2018-01-11T03:48:28.973Z,3.60
2018-01-11T03:53:41.847Z,3.70
2018-01-11T03:56:10.544Z,3.70
2018-01-11T03:58:41.226Z,3.80
2018-01-11T04:01:13.327Z,3.80
2018-01-11T04:03:43.740Z,3.80
2018-01-11T04:06:12.425Z,3.80
2018-01-11T04:08:41.118Z,3.80
2018-01-11T04:11:09.784Z,3.80
2018-01-11T04:13:39.995Z,3.80
2018-01-11T04:16:15.210Z,3.90
2018-01-11T04:18:44.677Z,3.90
2018-01-11T04:21:13.353Z,3.90
2018-01-11T04:23:42.865Z,3.80
2018-01-11T04:26:11.560Z,3.70
2018-01-11T04:28:40.226Z,3.60
2018-01-11T04:31:08.935Z,3.60
2018-01-11T04:33:37.603Z,3.70
2018-01-11T04:36:06.287Z,3.70
2018-01-11T04:38:34.986Z,3.70
2018-01-11T04:41:03.656Z,3.70
2018-01-11T04:43:32.357Z,3.60
2018-01-11T04:46:01.029Z,3.60
2018-01-11T04:48:29.702Z,3.70
2018-01-11T04:50:58.401Z,3.60
2018-01-11T04:53:27.070Z,3.60
2018-01-11T04:55:56.533Z,3.60
2018-01-11T04:58:25.202Z,3.50
2018-01-11T05:00:53.358Z,3.50
2018-01-11T05:03:22.045Z,3.60
2018-01-11T05:05:50.717Z,3.70
2018-01-11T05:08:19.416Z,3.70
2018-01-11T05:10:48.085Z,3.80
2018-01-11T05:13:17.530Z,3.90
2018-01-11T05:15:46.218Z,3.80
2018-01-11T05:18:14.887Z,3.90
2018-01-11T05:20:43.588Z,3.90
2018-01-11T05:23:12.266Z,3.90
2018-01-11T05:25:40.936Z,3.90
2018-01-11T05:28:09.624Z,3.90
2018-01-11T05:30:38.306Z,4.00
2018-01-11T05:33:06.998Z,4.00
2018-01-11T05:35:35.675Z,4.00
2018-01-11T05:38:04.354Z,4.00
2018-01-11T05:40:33.800Z,4.00
2018-01-11T05:43:02.472Z,4.00
2018-01-11T05:45:31.176Z,4.00
2018-01-11T05:47:59.844Z,4.00
2018-01-11T05:50:28.330Z,3.90
2018-01-11T05:52:57.018Z,3.90
2018-01-11T05:55:25.718Z,3.90
2018-01-11T05:57:54.417Z,3.90
2018-01-11T06:00:23.084Z,3.80
2018-01-11T06:02:51.752Z,3.80
2018-01-11T06:05:30.016Z,3.80
2018-01-11T06:07:58.690Z,3.70
2018-01-11T06:10:27.417Z,3.70
2018-01-11T06:12:57.363Z,3.80
2018-01-11T06:15:26.124Z,3.70
2018-01-11T06:17:55.594Z,3.90
2018-01-11T06:20:24.469Z,3.80
2018-01-11T06:22:53.425Z,3.90
2018-01-11T07:56:44.726Z,3.80
2018-01-11T07:59:13.397Z,3.40
2018-01-11T08:01:42.131Z,3.50
2018-01-11T08:04:10.965Z,3.50
2018-01-11T08:06:39.634Z,3.60
2018-01-11T08:09:09.111Z,3.60
2018-01-11T08:11:37.790Z,3.60
2018-01-11T08:14:06.457Z,3.60
2018-01-11T08:16:35.142Z,3.50
2018-01-11T08:19:03.828Z,3.40
2018-01-11T08:21:32.527Z,3.30
2018-01-11T08:24:01.201Z,3.30
2018-01-11T08:26:29.869Z,3.30
2018-01-11T08:28:58.568Z,3.30
2018-01-11T08:31:28.137Z,3.40
2018-01-11T08:33:57.601Z,3.60
2018-01-11T08:36:26.273Z,3.50
2018-01-11T08:38:54.960Z,3.60
2018-01-11T08:41:23.651Z,3.60
2018-01-11T08:43:52.322Z,3.80
2018-01-11T08:46:21.021Z,3.90
2018-01-11T08:48:49.700Z,3.90
2018-01-11T08:51:18.399Z,4.00
2018-01-11T08:53:47.094Z,4.10
2018-01-11T08:56:15.820Z,4.20
2018-01-11T08:58:45.288Z,4.20
2018-01-11T09:01:13.961Z,4.20
2018-01-11T09:03:42.636Z,4.30
2018-01-11T09:06:11.327Z,4.30
2018-01-11T09:08:40.007Z,4.40
2018-01-11T09:11:08.710Z,4.50
2018-01-11T09:13:37.375Z,4.50
2018-01-11T09:16:06.046Z,4.60
2018-01-11T09:18:34.752Z,4.60
2018-01-11T09:21:03.433Z,4.50
2018-01-11T09:23:32.132Z,4.40
2018-01-11T09:26:00.813Z,4.40
2018-01-11T09:28:29.481Z,4.40
2018-01-11T09:30:58.165Z,4.40
2018-01-11T09:33:26.833Z,4.50
2018-01-11T09:35:56.307Z,4.60
2018-01-11T09:38:24.976Z,4.60
2018-01-11T09:40:53.649Z,4.70
2018-01-11T09:43:22.333Z,4.80
2018-01-11T09:45:51.005Z,4.80
2018-01-11T09:48:20.471Z,4.90
2018-01-11T09:50:49.161Z,5.00
2018-01-11T09:53:17.849Z,5.00
2018-01-11T09:55:46.545Z,5.10
2018-01-11T09:58:15.240Z,5.20
2018-01-11T10:00:44.383Z,5.30
2018-01-11T10:03:13.049Z,5.30
2018-01-11T10:05:41.722Z,5.30
2018-01-11T10:08:11.188Z,5.30
2018-01-11T10:10:39.873Z,5.30
2018-01-11T10:13:08.598Z,5.40
2018-01-11T10:15:38.038Z,5.40
2018-01-11T10:18:06.742Z,5.40
2018-01-11T10:20:35.468Z,5.40
2018-01-11T10:23:04.988Z,5.50
2018-01-11T10:25:35.103Z,5.50
2018-01-11T10:28:04.542Z,5.60
2018-01-11T10:30:34.063Z,5.60
2018-01-11T10:33:02.745Z,5.60
2018-01-11T10:35:31.413Z,5.60
2018-01-11T10:38:00.113Z,5.70
2018-01-11T10:40:28.786Z,5.80
2018-01-11T10:42:57.457Z,5.90
2018-01-11T10:45:26.157Z,5.90
2018-01-11T10:47:55.561Z,6.00
2018-01-11T10:50:24.260Z,5.90
2018-01-11T10:52:52.943Z,6.00
2018-01-11T10:55:21.649Z,6.00
2018-01-11T10:57:50.337Z,6.00
2018-01-11T11:00:18.342Z,6.10
2018-01-11T11:02:49.822Z,6.10
2018-01-11T11:05:18.509Z,6.10
2018-01-11T11:07:47.215Z,6.10
2018-01-11T11:10:15.886Z,6.20
2018-01-11T11:12:44.557Z,6.30
2018-01-11T11:15:14.013Z,6.20
2018-01-11T11:17:42.704Z,6.20
2018-01-11T11:20:11.085Z,6.30
2018-01-11T11:22:39.766Z,6.30
2018-01-11T11:25:08.450Z,6.40
2018-01-11T11:27:37.132Z,6.40
2018-01-11T11:30:05.817Z,6.40
2018-01-11T11:32:34.530Z,6.40
2018-01-11T11:35:03.193Z,6.40
2018-01-11T11:37:31.869Z,6.50
2018-01-11T11:40:00.557Z,6.50
2018-01-11T11:42:29.243Z,6.50
2018-01-11T11:44:57.949Z,6.50
2018-01-11T11:47:26.622Z,6.50
2018-01-11T11:49:55.281Z,6.60
2018-01-11T11:52:24.005Z,6.60
2018-01-11T11:54:52.672Z,6.60
2018-01-11T11:57:21.372Z,6.70
2018-01-11T11:59:50.049Z,6.70
2018-01-11T12:02:18.762Z,6.80
2018-01-11T12:04:47.616Z,6.80
2018-01-11T12:07:16.285Z,6.80
2018-01-11T12:09:45.736Z,6.80
2018-01-11T12:12:14.411Z,6.80
2018-01-11T12:14:43.120Z,6.90
2018-01-11T12:17:11.788Z,6.90
2018-01-11T12:19:40.450Z,6.90
2018-01-11T12:22:09.133Z,6.90
2018-01-11T12:24:37.796Z,6.90
2018-01-11T12:27:06.491Z,7.00
2018-01-11T12:29:35.949Z,7.00
2018-01-11T12:32:04.629Z,7.00
2018-01-11T12:34:33.334Z,7.10
2018-01-11T12:37:02.010Z,7.10
2018-01-11T12:39:30.704Z,7.20
2018-01-11T12:41:59.381Z,7.20
2018-01-11T12:44:28.049Z,7.20
2018-01-11T12:46:56.736Z,7.30
2018-01-11T12:49:25.409Z,7.30
2018-01-11T12:51:54.116Z,7.40
2018-01-11T12:54:22.793Z,7.40
2018-01-11T12:56:51.464Z,7.50
2018-01-11T12:59:20.835Z,7.50
2018-01-11T13:01:49.505Z,7.60
2018-01-11T13:04:18.206Z,7.60
2018-01-11T13:06:46.890Z,7.60
2018-01-11T13:09:15.557Z,7.60
2018-01-11T13:11:44.240Z,7.70
2018-01-11T13:14:12.922Z,7.70
2018-01-11T13:16:41.609Z,7.70
2018-01-11T13:19:10.281Z,7.80
2018-01-11T13:21:38.954Z,7.80
2018-01-11T13:24:07.633Z,7.80
2018-01-11T13:26:37.073Z,7.80
2018-01-11T13:29:05.766Z,7.80
2018-01-11T13:31:35.439Z,7.80
2018-01-11T13:34:03.784Z,7.90
2018-01-11T13:36:32.465Z,7.90
2018-01-11T13:39:00.960Z,7.90
2018-01-11T13:41:29.764Z,7.90
2018-01-11T13:43:59.196Z,8.00
2018-01-11T13:46:27.861Z,8.00
2018-01-11T13:48:57.314Z,8.00
2018-01-11T13:51:25.743Z,8.00
2018-01-11T13:53:55.212Z,8.00
2018-01-11T13:56:23.544Z,8.00
2018-01-11T13:58:52.216Z,8.00
2018-01-11T14:01:21.664Z,7.90
2018-01-11T14:03:50.334Z,7.90
2018-01-11T14:06:19.037Z,7.90
2018-01-11T14:08:47.709Z,7.90
2018-01-11T14:11:16.373Z,7.90
2018-01-11T14:13:45.059Z,7.90
2018-01-11T14:16:14.305Z,7.90
2018-01-11T14:18:42.997Z,7.90
2018-01-11T14:21:11.679Z,7.80
2018-01-11T14:23:40.366Z,7.80
2018-01-11T14:26:09.056Z,7.80
2018-01-11T14:28:37.750Z,7.80
2018-01-11T14:31:06.457Z,7.80
2018-01-11T14:33:35.132Z,7.70
2018-01-11T14:36:03.802Z,7.80
2018-01-11T14:38:32.482Z,7.80
2018-01-11T14:41:01.158Z,7.80
2018-01-11T14:43:29.861Z,7.80
2018-01-11T14:45:58.558Z,7.70
2018-01-11T14:48:27.245Z,7.80
2018-01-11T14:50:55.924Z,7.70
2018-01-11T14:53:24.409Z,7.70
2018-01-11T14:55:53.114Z,7.70
2018-01-11T14:58:21.787Z,7.70
2018-01-11T15:00:50.116Z,7.70
2018-01-11T15:03:18.829Z,7.70
2018-01-11T15:05:47.502Z,7.70
2018-01-11T15:08:16.197Z,7.70
2018-01-11T15:10:44.878Z,7.70
2018-01-11T15:13:13.563Z,7.70
2018-01-11T15:15:42.266Z,7.70
2018-01-11T15:18:10.936Z,7.70
2018-01-11T15:20:39.637Z,7.70
2018-01-11T15:23:08.308Z,7.70
2018-01-11T15:25:36.962Z,7.60
2018-01-11T15:28:06.413Z,7.50
2018-01-11T15:30:35.090Z,7.50
2018-01-11T15:33:03.787Z,7.50
2018-01-11T15:35:32.473Z,7.40
2018-01-11T15:38:01.146Z,7.30
2018-01-11T15:40:29.838Z,7.30
2018-01-11T15:42:58.521Z,7.30
2018-01-11T15:45:27.409Z,7.20
2018-01-11T15:47:56.081Z,7.20
2018-01-11T15:50:25.517Z,7.10
2018-01-11T15:52:54.198Z,7.00
2018-01-11T15:55:22.865Z,7.00
2018-01-11T15:57:51.564Z,6.90
2018-01-11T16:00:20.253Z,6.90
2018-01-11T16:02:48.917Z,6.80
2018-01-11T16:05:18.376Z,6.70
2018-01-11T16:07:47.044Z,6.70
2018-01-11T16:10:15.744Z,6.60
2018-01-11T16:12:44.414Z,6.60
2018-01-11T16:15:13.086Z,6.60
2018-01-11T16:17:41.776Z,6.50
2018-01-11T16:20:10.441Z,6.40
2018-01-11T16:22:39.905Z,6.40
2018-01-11T16:25:08.577Z,6.40
2018-01-11T16:27:37.279Z,6.40
2018-01-11T16:30:06.746Z,6.30
2018-01-11T16:32:35.426Z,6.30
2018-01-11T16:35:04.123Z,6.20
2018-01-11T16:37:32.883Z,6.10
2018-01-11T16:40:02.322Z,6.00
2018-01-11T16:42:31.018Z,6.00
2018-01-11T16:44:59.685Z,6.00
2018-01-11T16:47:28.391Z,6.00
2018-01-11T16:49:57.061Z,6.10
2018-01-11T16:52:25.734Z,6.10
2018-01-11T16:54:54.433Z,6.00
2018-01-11T16:57:23.109Z,6.00
2018-01-11T16:59:51.623Z,5.90
2018-01-11T17:02:20.289Z,5.80
2018-01-11T17:04:48.972Z,5.80
2018-01-11T17:07:17.649Z,5.90
2018-01-11T17:09:46.330Z,6.00
2018-01-11T17:12:15.462Z,6.00
2018-01-11T17:14:44.133Z,5.90
2018-01-11T17:17:12.798Z,5.90
2018-01-11T17:19:42.254Z,5.90
2018-01-11T18:44:10.525Z,5.70
2018-01-11T18:46:39.216Z,4.70
2018-01-11T18:49:07.884Z,4.70
2018-01-11T18:51:36.553Z,4.70
2018-01-11T18:54:05.234Z,4.70
2018-01-11T18:56:33.907Z,4.80
2018-01-11T18:59:02.601Z,4.70
2018-01-11T19:01:31.278Z,4.70
2018-01-11T19:03:59.966Z,4.70
2018-01-11T19:06:29.410Z,4.70
2018-01-11T19:08:58.083Z,4.70
2018-01-11T19:11:26.781Z,4.80
2018-01-11T19:13:55.461Z,4.80
2018-01-11T19:16:24.138Z,4.90
2018-01-11T19:18:52.825Z,4.90
2018-01-11T19:21:21.497Z,4.90
2018-01-11T19:23:50.187Z,4.90
2018-01-11T19:26:18.851Z,4.90
2018-01-11T19:28:48.286Z,4.80
2018-01-11T19:31:17.025Z,4.80
2018-01-11T19:33:45.720Z,4.80
2018-01-11T19:36:15.201Z,4.80
2018-01-11T19:38:43.538Z,4.80
2018-01-11T19:41:12.214Z,4.90
2018-01-11T19:43:40.901Z,4.80
2018-01-11T19:46:09.574Z,4.80
2018-01-11T19:48:39.032Z,4.90
2018-01-11T19:51:08.461Z,4.90
2018-01-11T19:53:37.133Z,4.90
2018-01-11T19:56:05.821Z,5.00
2018-01-11T19:58:34.500Z,5.00
2018-01-11T20:01:03.214Z,5.00
2018-01-11T20:03:31.900Z,5.10
2018-01-11T20:06:00.753Z,5.10
2018-01-11T20:08:29.437Z,5.20
2018-01-11T20:10:58.112Z,5.10
2018-01-11T20:13:26.809Z,5.10
2018-01-11T20:15:55.158Z,5.00
2018-01-11T20:18:23.869Z,5.00
2018-01-11T20:20:53.458Z,5.00
2018-01-11T20:23:22.125Z,5.00
2018-01-11T20:25:51.593Z,5.00
2018-01-11T20:28:20.270Z,5.10
2018-01-11T20:30:48.950Z,5.10
2018-01-11T20:33:17.636Z,5.10
2018-01-11T20:35:46.310Z,5.10
2018-01-11T20:38:15.012Z,5.10
2018-01-11T20:40:43.688Z,5.10
2018-01-11T20:43:12.446Z,5.10
2018-01-11T20:45:41.903Z,5.00
2018-01-11T20:48:10.595Z,5.00
2018-01-11T20:50:39.297Z,4.90
2018-01-11T20:53:07.964Z,4.90
2018-01-11T20:55:36.637Z,4.80
2018-01-11T20:58:05.132Z,4.80
2018-01-11T21:00:33.800Z,4.80
2018-01-11T21:03:02.506Z,4.80
2018-01-11T21:05:31.002Z,4.90
2018-01-11T21:07:59.694Z,4.90
2018-01-11T21:10:28.397Z,4.90
2018-01-11T21:12:57.840Z,5.10
2018-01-11T21:15:26.533Z,5.10
2018-01-11T21:17:55.202Z,5.20
2018-01-11T21:20:23.874Z,5.30
2018-01-11T21:22:53.330Z,5.30
2018-01-11T21:25:21.996Z,5.30
2018-01-11T21:27:50.698Z,5.40
2018-01-11T21:30:19.377Z,5.40
2018-01-11T21:32:48.056Z,5.40
2018-01-11T21:35:16.746Z,5.40
2018-01-11T21:37:45.413Z,5.40
2018-01-11T21:40:13.781Z,5.40
2018-01-11T21:42:43.226Z,5.40
2018-01-11T21:45:11.909Z,5.40
2018-01-11T21:47:40.597Z,5.40
2018-01-11T21:50:09.278Z,5.30
2018-01-11T21:52:37.982Z,5.20
2018-01-11T21:55:06.655Z,5.30
2018-01-11T21:57:35.325Z,5.20
2018-01-11T22:00:03.704Z,5.10
2018-01-11T22:02:33.316Z,5.10
2018-01-11T22:05:02.024Z,5.10
2018-01-11T22:07:30.692Z,5.10
2018-01-11T22:09:59.400Z,5.00
2018-01-11T22:12:29.004Z,5.10
2018-01-11T22:14:57.672Z,5.10
2018-01-11T22:17:26.364Z,5.20
2018-01-11T22:19:54.840Z,5.20
2018-01-11T22:22:23.182Z,5.20
2018-01-11T22:24:51.869Z,5.10
2018-01-11T22:27:20.546Z,5.10
2018-01-11T22:29:49.237Z,5.10
2018-01-11T22:32:17.906Z,5.00
2018-01-11T22:34:46.568Z,5.00
2018-01-11T22:37:15.266Z,5.00
2018-01-11T22:39:43.949Z,4.90
2018-01-11T22:42:12.621Z,4.90
2018-01-11T22:44:41.310Z,5.00
2018-01-11T22:47:09.978Z,5.00
2018-01-11T22:49:39.425Z,4.90
2018-01-11T22:52:08.109Z,4.90
2018-01-11T22:54:36.773Z,4.90
2018-01-11T22:57:05.443Z,5.00
2018-01-11T22:59:34.897Z,4.90
2018-01-11T23:02:03.562Z,4.90
2018-01-11T23:04:33.026Z,5.00
2018-01-11T23:07:02.454Z,5.10
2018-01-11T23:09:31.114Z,5.10
2018-01-11T23:12:00.554Z,5.10
2018-01-11T23:14:29.281Z,5.10
2018-01-11T23:16:58.875Z,5.10
2018-01-11T23:19:27.545Z,5.10
2018-01-11T23:21:56.205Z,5.10
2018-01-11T23:24:24.889Z,5.10
2018-01-11T23:26:54.316Z,5.00
